Terminal Aerodrome Forecast
Issued by NWS

Home | Current Version | Previous Version | Text Only | Print | Product List | Glossary On
Versions: 1 2 3 4 5 6 7 8 9 10 11 12 13 14 15 16
479
FTUS42 KTAE 210525
TAFABY
TAF
KABY 210525Z 2106/2206 12003KT P6SM BKN250
     FM211500 15010G20KT P6SM SCT025 BKN050=

USA.gov is the U.S. government's official web portal to all federal, state and local government web resources and services.